Los Angeles Regional Airport Weather

KWHP 241455Z 00000KT 10SM SKC 19/15 A2994

KAPV 191256Z AUTO 05004KT 10SM FEW075 SCT090 BKN110 18/18 A2996 RMK AO2 SLP144 T01830178 $

KAVX 241451Z AUTO VRB06KT 10SM CLR 18/13 A2993 RMK AO2 SLP121 T01780133 51006 $

KBFL 241454Z 06006KT 10SM CLR 31/17 A2989 RMK AO2 SLP114 T03110167 51015

KBUR 241453Z AUTO 14005KT 10SM CLR 19/15 A2990 RMK AO2 SLP113 T01890150 53009 $

KCMA 241529Z 00000KT 8SM SCT007 17/15 A2990 RMK AO2 T01720150

KCNO 241453Z 29005KT 10SM BKN100 21/16 A2990 RMK AO2 SLP119 T02060156 53001

KEMT 241452Z 00000KTS 8SM HZ SCT030 19/15 A2991

KFUL 241453Z 21004KT 6SM BR OVC010 18/16 A2990 RMK AO2 SLP122 T01830161 51012

KHHR 241519Z 26007KT 10SM OVC006 17/15 A2991 RMK AO2 T01670150

KL35 241535Z AUTO 20003KT 10SM CLR 24/01 A3031 RMK AO2

KLAX 241539Z 26005KT 6SM BR BKN005 BKN130 BKN180 18/16 A2991 RMK AO2 T01780156

KLGB 241453Z AUTO 00000KT 8SM BKN006 17/16 A2990 RMK AO2 CIG 005V009 SLP125 T01720156 51014 TSNO

KONT 241453Z 27006KT 7SM BKN210 BKN240 22/16 A2989 RMK AO2 SLP107 VIRGA W T02170156 53001

KOXR 241536Z 24003KT 10SM SCT008 BKN110 17/15 A2991 RMK AO2 T01670150

KPMD 241453Z AUTO 29004KT 10SM CLR 31/11 A2997 RMK AO2 SLP112 T03110106 51013

KPOC 241447Z 28005KT 8SM CLR 20/15 A2993

KRAL 241453Z 28004KT 10SM CLR 21/16 A2988 RMK AO2 SLP102 T02110161 58004

KSMO 241451Z 21005KT 5SM BR OVC002 16/16 A2992 RMK AO2 SLP130 T01610156 53009

KSNA 241453Z 00000KT 5SM BR OVC008 18/16 A2991 RMK AO2 SLP127 T01780161 53017

KTOA 241447Z 32004KT 6SM HZ SCT006 BKN020 16/15 A2990

KTRM 241452Z AUTO 13003KT 10SM CLR 31/20 A2971 RMK AO2 SLP065 T03110200 51016

KVNY 241451Z AUTO 12003KT 10SM CLR 21/16 A2990 RMK AO2 SLP116 T02110161 53010

KWJF 241456Z 27006KT 10SM CLR 33/11 A2996 RMK AO2 SLP115 T03280111 51014



How to read METARs